createdAt,value
2023-05-13T00:00:16.159Z,101779.38
2023-05-13T00:02:42.677Z,101773.63
2023-05-13T00:05:09.261Z,101774.81
2023-05-13T00:07:35.938Z,101772.78
2023-05-13T00:10:02.499Z,101780.75
2023-05-13T00:12:31.122Z,101772.25
2023-05-13T00:14:57.622Z,101773.78
2023-05-13T00:17:24.110Z,101771.56
2023-05-13T00:19:50.541Z,101768.16
2023-05-13T00:22:17.095Z,101769.97
2023-05-13T00:24:43.516Z,101769.59
2023-05-13T00:27:10.213Z,101769.41
2023-05-13T00:29:36.658Z,101768.19
2023-05-13T00:32:03.475Z,101770.22
2023-05-13T00:34:30.021Z,101766.63
2023-05-13T00:36:56.441Z,101768.34
2023-05-13T00:39:23.005Z,101771.72
2023-05-13T00:41:49.429Z,101769.56
2023-05-13T00:44:15.892Z,101763.94
2023-05-13T00:46:42.470Z,101773.22
2023-05-13T00:49:09.041Z,101770.19
2023-05-13T00:51:36.720Z,101772.06
2023-05-13T00:54:04.391Z,101776.81
2023-05-13T00:56:30.942Z,101778.63
2023-05-13T00:58:57.774Z,101777.44
2023-05-13T01:01:31.744Z,101778.97
2023-05-13T01:04:11.424Z,101777.75
2023-05-13T01:06:59.290Z,101783.31
2023-05-13T01:09:44.246Z,101776.34
2023-05-13T01:12:22.128Z,101773.19
2023-05-13T01:15:04.181Z,101771.47
2023-05-13T01:17:57.420Z,101768.75
2023-05-13T01:20:24.580Z,101771.09
2023-05-13T01:22:51.448Z,101770.25
2023-05-13T01:25:18.253Z,101769.06
2023-05-13T01:27:45.034Z,101773.78
2023-05-13T01:30:12.332Z,101772.53
2023-05-13T01:32:39.175Z,101777.97
2023-05-13T01:35:07.349Z,101757.31
2023-05-13T01:37:33.843Z,101767.66
2023-05-13T01:40:00.984Z,101763.41
2023-05-13T01:42:29.980Z,101768.13
2023-05-13T01:44:57.595Z,101774.56
2023-05-13T01:47:24.108Z,101770.31
2023-05-13T01:49:50.557Z,101772.75
2023-05-13T01:52:17.070Z,101777.97
2023-05-13T01:54:43.501Z,101771.59
2023-05-13T01:57:10.036Z,101769.84
2023-05-13T01:59:36.472Z,101778.47
2023-05-13T02:02:04.051Z,101776.75
2023-05-13T02:04:30.564Z,101774.53
2023-05-13T02:06:57.074Z,101771.88
2023-05-13T02:09:23.554Z,101771.88
2023-05-13T02:11:50.039Z,101779.88
2023-05-13T02:14:16.751Z,101771.25
2023-05-13T02:16:43.386Z,101770.09
2023-05-13T02:19:10.010Z,101769.72
2023-05-13T02:21:36.562Z,101769.34
2023-05-13T02:24:03.184Z,101763.84
2023-05-13T02:26:29.578Z,101772.91
2023-05-13T02:28:56.169Z,101771.00
2023-05-13T02:31:22.610Z,101774.38
2023-05-13T02:33:49.021Z,101774.16
2023-05-13T02:36:16.048Z,101769.84
2023-05-13T02:38:42.576Z,101767.78
2023-05-13T02:41:09.040Z,101773.91
2023-05-13T02:43:35.494Z,101764.78
2023-05-13T02:46:02.721Z,101772.53
2023-05-13T02:48:29.195Z,101769.09
2023-05-13T02:50:55.678Z,101763.16
2023-05-13T02:53:22.364Z,101765.13
2023-05-13T02:55:48.858Z,101759.03
2023-05-13T02:58:15.417Z,101766.00
2023-05-13T03:00:42.907Z,101760.66
2023-05-13T03:03:09.434Z,101767.38
2023-05-13T03:05:35.924Z,101768.81
2023-05-13T03:08:02.418Z,101764.00
2023-05-13T03:10:28.904Z,101763.00
2023-05-13T03:12:55.841Z,101759.91
2023-05-13T03:15:22.347Z,101757.19
2023-05-13T03:17:48.825Z,101758.03
2023-05-13T03:20:15.319Z,101764.53
2023-05-13T03:22:42.067Z,101767.78
2023-05-13T03:25:08.763Z,101762.34
2023-05-13T03:27:35.193Z,101765.84
2023-05-13T03:30:01.757Z,101765.31
2023-05-13T03:32:30.906Z,101769.03
2023-05-13T03:34:58.399Z,101771.34
2023-05-13T03:37:24.799Z,101768.47
2023-05-13T03:39:51.479Z,101772.88
2023-05-13T03:42:18.093Z,101775.34
2023-05-13T03:44:44.548Z,101775.34
2023-05-13T03:47:11.019Z,101772.03
2023-05-13T03:49:37.729Z,101777.91
2023-05-13T03:52:04.431Z,101779.53
2023-05-13T03:54:30.823Z,101779.84
2023-05-13T03:56:57.253Z,101785.41
2023-05-13T03:59:24.241Z,101783.91
2023-05-13T04:01:51.112Z,101782.69
2023-05-13T04:04:17.645Z,101779.34
2023-05-13T04:06:44.168Z,101782.78
2023-05-13T04:09:10.629Z,101776.97
2023-05-13T04:11:37.042Z,101778.28
2023-05-13T04:14:03.476Z,101784.97
2023-05-13T04:16:29.987Z,101784.22
2023-05-13T04:18:56.521Z,101789.34
2023-05-13T04:21:22.987Z,101792.75
2023-05-13T04:23:49.479Z,101798.19
2023-05-13T04:26:15.996Z,101799.41
2023-05-13T04:28:42.416Z,101798.81
2023-05-13T04:31:08.877Z,101797.00
2023-05-13T04:33:35.367Z,101797.94
2023-05-13T04:36:01.878Z,101799.97
2023-05-13T04:38:28.336Z,101799.56
2023-05-13T04:40:54.792Z,101806.94
2023-05-13T04:43:21.430Z,101802.03
2023-05-13T04:45:48.965Z,101804.16
2023-05-13T04:48:16.318Z,101805.03
2023-05-13T04:50:46.938Z,101812.50
2023-05-13T04:53:14.151Z,101807.03
2023-05-13T04:55:40.690Z,101814.84
2023-05-13T04:58:07.165Z,101810.03
2023-05-13T05:00:33.838Z,101812.47
2023-05-13T05:03:00.371Z,101819.16
2023-05-13T05:05:26.969Z,101821.66
2023-05-13T05:07:53.410Z,101819.16
2023-05-13T05:10:20.303Z,101815.59
2023-05-13T05:12:46.839Z,101810.84
2023-05-13T05:15:15.908Z,101814.69
2023-05-13T05:17:43.560Z,101812.56
2023-05-13T05:20:11.176Z,101823.22
2023-05-13T05:22:38.552Z,101824.78
2023-05-13T05:25:05.388Z,101821.06
2023-05-13T05:27:31.878Z,101818.03
2023-05-13T05:29:58.304Z,101822.16
2023-05-13T05:32:25.069Z,101825.25
2023-05-13T05:34:51.853Z,101828.66
2023-05-13T05:37:18.279Z,101830.69
2023-05-13T05:39:44.723Z,101833.69
2023-05-13T05:42:11.662Z,101831.38
2023-05-13T05:44:38.078Z,101828.84
2023-05-13T05:47:04.677Z,101829.16
2023-05-13T05:49:31.059Z,101836.59
2023-05-13T05:51:57.557Z,101839.28
2023-05-13T05:54:24.062Z,101837.50
2023-05-13T05:56:50.532Z,101836.13
2023-05-13T05:59:16.995Z,101833.19
2023-05-13T06:01:43.407Z,101835.50
2023-05-13T06:04:09.955Z,101832.03
2023-05-13T06:06:36.874Z,101836.50
2023-05-13T06:09:03.440Z,101827.47
2023-05-13T06:11:29.885Z,101828.03
2023-05-13T06:13:57.609Z,101830.72
2023-05-13T06:16:24.251Z,101827.81
2023-05-13T06:18:50.799Z,101840.16
2023-05-13T06:21:17.256Z,101840.03
2023-05-13T06:23:43.679Z,101836.25
2023-05-13T06:26:10.127Z,101835.09
2023-05-13T06:28:36.632Z,101838.31
2023-05-13T06:31:03.190Z,101837.69
2023-05-13T06:33:29.907Z,101836.03
2023-05-13T06:35:56.431Z,101830.38
2023-05-13T06:38:23.026Z,101834.00
2023-05-13T06:40:49.466Z,101829.66
2023-05-13T06:43:16.530Z,101830.00
2023-05-13T06:45:43.121Z,101827.81
2023-05-13T06:48:09.622Z,101829.66
2023-05-13T06:50:36.213Z,101836.50
2023-05-13T06:53:02.708Z,101823.25
2023-05-13T06:55:29.182Z,101828.53
2023-05-13T06:57:55.679Z,101828.09
2023-05-13T07:00:22.644Z,101823.72
2023-05-13T07:02:49.297Z,101824.75
2023-05-13T07:05:15.803Z,101829.59
2023-05-13T07:07:43.317Z,101830.09
2023-05-13T07:10:10.124Z,101822.75
2023-05-13T07:12:36.676Z,101825.06
2023-05-13T07:15:03.229Z,101822.22
2023-05-13T07:17:31.380Z,101811.13
2023-05-13T07:19:58.094Z,101825.38
2023-05-13T07:22:24.639Z,101818.13
2023-05-13T07:24:51.105Z,101826.84
2023-05-13T07:27:17.553Z,101824.53
2023-05-13T07:29:44.004Z,101822.63
2023-05-13T07:32:10.706Z,101813.81
2023-05-13T07:34:37.510Z,101824.81
2023-05-13T07:37:04.586Z,101816.03
2023-05-13T07:39:31.281Z,101812.16
2023-05-13T07:41:58.596Z,101821.56
2023-05-13T07:44:25.056Z,101813.03
2023-05-13T07:46:53.571Z,101816.03
2023-05-13T07:49:21.247Z,101818.59
2023-05-13T07:51:47.719Z,101817.41
2023-05-13T07:54:14.169Z,101816.41
2023-05-13T07:56:40.690Z,101815.44
2023-05-13T07:59:07.116Z,101816.50
2023-05-13T08:01:33.632Z,101818.41
2023-05-13T08:04:00.372Z,101808.28
2023-05-13T08:06:26.963Z,101812.47
2023-05-13T08:08:53.449Z,101814.38
2023-05-13T08:11:19.918Z,101819.47
2023-05-13T08:13:46.424Z,101819.63
2023-05-13T08:16:12.985Z,101825.53
2023-05-13T08:18:39.590Z,101827.94
2023-05-13T08:21:06.190Z,101823.06
2023-05-13T08:23:44.253Z,101823.06
2023-05-13T08:26:11.908Z,101821.44
2023-05-13T08:28:38.551Z,101819.03
2023-05-13T08:31:05.154Z,101821.53
2023-05-13T08:33:32.413Z,101823.50
2023-05-13T08:36:00.229Z,101817.13
2023-05-13T08:38:26.763Z,101817.22
2023-05-13T08:40:53.357Z,101814.59
2023-05-13T08:43:21.885Z,101813.38
2023-05-13T08:45:51.164Z,101805.25
2023-05-13T08:48:19.765Z,101816.81
2023-05-13T08:50:47.156Z,101819.25
2023-05-13T08:53:16.526Z,101814.00
2023-05-13T08:55:42.992Z,101824.50
2023-05-13T08:58:09.426Z,101818.13
2023-05-13T09:00:36.083Z,101817.72
2023-05-13T09:03:02.808Z,101818.25
2023-05-13T09:05:29.527Z,101818.09
2023-05-13T09:07:57.269Z,101816.31
2023-05-13T09:10:23.808Z,101815.56
2023-05-13T09:12:52.998Z,101811.00
2023-05-13T09:15:29.184Z,101806.88
2023-05-13T09:17:58.496Z,101806.66
2023-05-13T09:20:26.070Z,101803.66
2023-05-13T09:22:54.177Z,101806.66
2023-05-13T09:25:24.420Z,101802.22
2023-05-13T09:27:54.262Z,101809.78
2023-05-13T09:30:21.567Z,101797.28
2023-05-13T09:33:05.750Z,101798.81
2023-05-13T09:35:33.189Z,101797.59
2023-05-13T09:37:59.880Z,101800.47
2023-05-13T09:40:26.473Z,101787.09
2023-05-13T09:42:58.958Z,101797.34
2023-05-13T09:45:26.345Z,101792.16
2023-05-13T09:47:54.492Z,101799.38
2023-05-13T09:50:22.137Z,101786.53
2023-05-13T09:52:49.694Z,101794.09
2023-05-13T09:55:16.211Z,101788.00
2023-05-13T09:57:42.771Z,101783.06
2023-05-13T10:00:17.903Z,101790.91
2023-05-13T10:02:48.226Z,101777.88
2023-05-13T10:05:15.285Z,101787.84
2023-05-13T10:07:42.297Z,101782.94
2023-05-13T10:10:10.116Z,101773.13
2023-05-13T10:12:39.692Z,101768.88
2023-05-13T10:15:07.060Z,101764.13
2023-05-13T10:17:34.289Z,101754.19
2023-05-13T10:20:01.780Z,101756.03
2023-05-13T10:22:30.860Z,101751.16
2023-05-13T10:24:59.339Z,101751.09
2023-05-13T10:27:32.617Z,101748.09
2023-05-13T10:30:03.387Z,101745.84
2023-05-13T10:32:31.551Z,101743.84
2023-05-13T10:35:08.587Z,101743.34
2023-05-13T10:37:50.400Z,101747.25
2023-05-13T10:40:46.902Z,101737.22
2023-05-13T10:43:17.180Z,101744.38
2023-05-13T10:46:05.094Z,101739.06
2023-05-13T10:48:43.673Z,101734.66
2023-05-13T10:51:14.292Z,101735.38
2023-05-13T10:53:55.679Z,101731.75
2023-05-13T10:56:24.457Z,101741.09
2023-05-13T10:58:59.772Z,101737.13
2023-05-13T11:01:30.379Z,101740.13
2023-05-13T11:04:00.801Z,101744.50
2023-05-13T11:06:37.596Z,101736.59
2023-05-13T11:09:08.977Z,101744.88
2023-05-13T11:11:36.652Z,101736.22
2023-05-13T11:14:17.431Z,101737.63
2023-05-13T11:17:00.489Z,101735.09
2023-05-13T11:19:28.142Z,101743.16
2023-05-13T11:22:04.149Z,101730.16
2023-05-13T11:24:30.929Z,101741.66
2023-05-13T11:26:59.333Z,101734.44
2023-05-13T11:29:29.855Z,101743.88
2023-05-13T11:32:00.648Z,101739.06
2023-05-13T11:34:28.577Z,101726.78
2023-05-13T11:37:08.818Z,101734.16
2023-05-13T11:39:36.289Z,101723.72
2023-05-13T11:42:07.591Z,101718.06
2023-05-13T11:44:35.212Z,101733.19
2023-05-13T11:47:05.962Z,101729.28
2023-05-13T11:49:42.477Z,101727.69
2023-05-13T11:52:16.901Z,101729.91
2023-05-13T11:54:44.320Z,101721.03
2023-05-13T11:57:34.147Z,101718.03
2023-05-13T12:00:06.667Z,101712.19
2023-05-13T12:02:36.382Z,101712.47
2023-05-13T12:05:12.264Z,101714.81
2023-05-13T12:07:39.611Z,101714.88
2023-05-13T12:10:08.317Z,101714.41
2023-05-13T12:12:39.799Z,101714.97
2023-05-13T12:15:20.543Z,101712.00
2023-05-13T12:17:49.303Z,101714.59
2023-05-13T12:20:16.600Z,101716.59
2023-05-13T12:22:43.141Z,101712.91
2023-05-13T12:25:38.182Z,101713.03
2023-05-13T12:28:16.443Z,101706.56
2023-05-13T12:30:52.040Z,101706.63
2023-05-13T12:33:20.991Z,101695.78
2023-05-13T12:35:49.700Z,101708.44
2023-05-13T12:38:18.967Z,101698.69
2023-05-13T12:40:46.747Z,101698.56
2023-05-13T12:43:14.225Z,101707.44
2023-05-13T12:45:44.773Z,101703.94
2023-05-13T12:48:12.086Z,101704.69
2023-05-13T12:50:38.592Z,101700.16
2023-05-13T12:53:05.871Z,101698.88
2023-05-13T12:55:32.429Z,101685.56
2023-05-13T12:58:03.609Z,101699.25
2023-05-13T13:00:30.859Z,101699.66
2023-05-13T13:02:57.952Z,101694.38
2023-05-13T13:05:25.179Z,101688.66
2023-05-13T13:07:51.933Z,101690.34
2023-05-13T13:10:18.590Z,101688.31
2023-05-13T13:12:45.145Z,101685.72
2023-05-13T13:15:12.227Z,101695.38
2023-05-13T13:17:38.908Z,101690.06
2023-05-13T13:20:07.150Z,101694.78
2023-05-13T13:22:34.772Z,101681.66
2023-05-13T13:25:01.244Z,101688.69
2023-05-13T13:27:27.764Z,101676.13
2023-05-13T13:29:54.496Z,101678.66
2023-05-13T13:32:21.022Z,101675.41
2023-05-13T13:34:47.578Z,101674.84
2023-05-13T13:37:14.002Z,101678.47
2023-05-13T13:39:40.444Z,101676.97
2023-05-13T13:42:06.994Z,101679.75
2023-05-13T13:44:33.490Z,101676.06
2023-05-13T13:47:00.023Z,101670.19
2023-05-13T13:49:26.480Z,101675.06
2023-05-13T13:51:53.258Z,101669.31
2023-05-13T13:54:20.446Z,101667.22
2023-05-13T13:56:48.069Z,101662.69
2023-05-13T13:59:14.597Z,101661.53
2023-05-13T14:01:41.144Z,101664.13
2023-05-13T14:04:16.069Z,101655.41
2023-05-13T14:06:43.124Z,101665.63
2023-05-13T14:09:10.673Z,101658.94
2023-05-13T14:11:37.381Z,101659.75
2023-05-13T14:14:04.602Z,101662.53
2023-05-13T14:16:31.125Z,101667.16
2023-05-13T14:18:57.644Z,101656.75
2023-05-13T14:21:24.237Z,101659.66
2023-05-13T14:23:50.805Z,101645.69
2023-05-13T14:26:17.643Z,101654.19
2023-05-13T14:28:44.911Z,101646.31
2023-05-13T14:31:11.478Z,101648.28
2023-05-13T14:33:38.094Z,101643.66
2023-05-13T14:36:05.660Z,101646.69
2023-05-13T14:38:32.187Z,101637.28
2023-05-13T14:40:58.737Z,101637.16
2023-05-13T14:43:25.492Z,101639.06
2023-05-13T14:45:52.032Z,101631.97
2023-05-13T14:48:19.232Z,101626.09
2023-05-13T14:50:46.760Z,101633.53
2023-05-13T14:53:13.618Z,101630.31
2023-05-13T14:55:40.372Z,101635.81
2023-05-13T14:58:09.741Z,101627.16
2023-05-13T15:00:39.874Z,101628.50
2023-05-13T15:03:06.845Z,101634.41
2023-05-13T15:05:33.549Z,101631.75
2023-05-13T15:08:00.961Z,101627.78
2023-05-13T15:10:27.366Z,101632.09
2023-05-13T15:12:53.890Z,101623.97
2023-05-13T15:15:20.586Z,101627.31
2023-05-13T15:17:47.250Z,101625.50
2023-05-13T15:20:13.755Z,101621.47
2023-05-13T15:22:40.225Z,101622.47
2023-05-13T15:25:07.177Z,101623.44
2023-05-13T15:27:33.655Z,101616.25
2023-05-13T15:30:00.250Z,101610.78
2023-05-13T15:32:26.881Z,101600.53
2023-05-13T15:34:53.401Z,101605.81
2023-05-13T15:37:20.528Z,101606.44
2023-05-13T15:39:47.055Z,101598.72
2023-05-13T15:42:13.696Z,101607.00
2023-05-13T15:44:40.153Z,101610.28
2023-05-13T15:47:06.982Z,101606.19
2023-05-13T15:49:33.598Z,101608.41
2023-05-13T15:52:00.773Z,101604.19
2023-05-13T15:54:27.293Z,101606.50
2023-05-13T15:56:55.615Z,101601.44
2023-05-13T15:59:22.342Z,101596.59
2023-05-13T16:01:49.077Z,101590.34
2023-05-13T16:04:16.178Z,101592.56
2023-05-13T16:06:42.706Z,101586.88
2023-05-13T16:09:09.361Z,101586.59
2023-05-13T16:11:35.890Z,101589.25
2023-05-13T16:14:02.437Z,101595.06
2023-05-13T16:16:28.928Z,101587.53
2023-05-13T16:18:55.585Z,101590.44
2023-05-13T16:21:22.125Z,101587.28
2023-05-13T16:23:48.653Z,101585.28
2023-05-13T16:26:15.115Z,101585.94
2023-05-13T16:28:41.588Z,101587.00
2023-05-13T16:31:08.032Z,101578.00
2023-05-13T16:33:36.182Z,101585.69
2023-05-13T16:36:02.656Z,101587.13
2023-05-13T16:38:30.415Z,101584.66
2023-05-13T16:40:56.918Z,101584.47
2023-05-13T16:43:23.466Z,101587.81
2023-05-13T16:45:49.910Z,101586.78
2023-05-13T16:48:16.482Z,101583.28
2023-05-13T16:50:42.938Z,101574.56
2023-05-13T16:53:09.364Z,101578.47
2023-05-13T16:55:35.833Z,101583.53
2023-05-13T16:58:02.311Z,101584.25
2023-05-13T17:00:28.901Z,101588.44
2023-05-13T17:02:55.641Z,101595.16
2023-05-13T17:05:22.893Z,101591.13
2023-05-13T17:07:49.326Z,101590.94
2023-05-13T17:10:15.842Z,101592.91
2023-05-13T17:12:42.265Z,101596.72
2023-05-13T17:15:08.924Z,101587.50
2023-05-13T17:17:35.400Z,101589.41
2023-05-13T17:20:01.968Z,101590.50
2023-05-13T17:22:28.499Z,101590.56
2023-05-13T17:24:54.981Z,101585.94
2023-05-13T17:27:21.611Z,101581.94
2023-05-13T17:29:48.054Z,101586.31
2023-05-13T17:32:14.553Z,101582.34
2023-05-13T17:34:41.045Z,101585.16
2023-05-13T17:37:07.483Z,101580.94
2023-05-13T17:39:33.954Z,101584.53
2023-05-13T17:42:00.493Z,101583.88
2023-05-13T17:44:27.126Z,101583.50
2023-05-13T17:46:54.650Z,101587.31
2023-05-13T17:49:21.398Z,101586.31
2023-05-13T17:51:47.837Z,101588.66
2023-05-13T17:54:14.390Z,101580.88
2023-05-13T17:56:40.931Z,101591.22
2023-05-13T17:59:07.458Z,101592.47
2023-05-13T18:01:34.046Z,101591.00
2023-05-13T18:04:00.856Z,101592.06
2023-05-13T18:06:27.329Z,101598.41
2023-05-13T18:08:54.115Z,101600.94
2023-05-13T18:11:22.121Z,101597.16
2023-05-13T18:13:48.720Z,101607.28
2023-05-13T18:16:17.281Z,101600.53
2023-05-13T18:18:45.812Z,101607.28
2023-05-13T18:21:12.368Z,101609.41
2023-05-13T18:23:38.810Z,101607.69
2023-05-13T18:26:05.407Z,101608.94
2023-05-13T18:28:31.817Z,101608.94
2023-05-13T18:30:58.338Z,101613.56
2023-05-13T18:33:24.776Z,101612.94
2023-05-13T18:35:51.408Z,101608.47
2023-05-13T18:38:17.862Z,101619.88
2023-05-13T18:40:44.349Z,101618.16
2023-05-13T18:43:10.829Z,101619.41
2023-05-13T18:45:37.384Z,101619.34
2023-05-13T18:48:04.356Z,101617.81
2023-05-13T18:50:31.009Z,101616.28
2023-05-13T18:52:57.479Z,101614.38
2023-05-13T18:55:23.956Z,101618.59
2023-05-13T18:57:50.767Z,101616.03
2023-05-13T19:00:17.816Z,101615.59
2023-05-13T19:02:44.464Z,101622.44
2023-05-13T19:05:11.202Z,101627.78
2023-05-13T19:07:37.659Z,101629.22
2023-05-13T19:10:04.353Z,101630.41
2023-05-13T19:12:30.776Z,101640.44
2023-05-13T19:14:57.166Z,101636.47
2023-05-13T19:17:23.720Z,101639.09
2023-05-13T19:19:50.222Z,101641.88
2023-05-13T19:22:16.691Z,101630.88
2023-05-13T19:24:43.173Z,101640.47
2023-05-13T19:27:10.162Z,101639.63
2023-05-13T19:29:36.633Z,101646.09
2023-05-13T19:32:03.193Z,101638.28
2023-05-13T19:34:29.612Z,101642.38
2023-05-13T19:36:56.101Z,101647.22
2023-05-13T19:39:22.640Z,101649.25
2023-05-13T19:41:49.371Z,101657.72
2023-05-13T19:44:15.847Z,101651.94
2023-05-13T19:46:42.474Z,101657.78
2023-05-13T19:49:09.115Z,101656.59
2023-05-13T19:51:35.726Z,101660.69
2023-05-13T19:54:02.168Z,101658.84
2023-05-13T19:56:28.918Z,101656.84
2023-05-13T19:58:55.654Z,101657.31
2023-05-13T20:01:24.136Z,101663.84
2023-05-13T20:03:50.944Z,101670.41
2023-05-13T20:06:17.384Z,101675.97
2023-05-13T20:08:43.808Z,101672.81
2023-05-13T20:11:10.266Z,101681.88
2023-05-13T20:13:36.788Z,101678.41
2023-05-13T20:16:03.254Z,101671.06
2023-05-13T20:18:29.923Z,101682.84
2023-05-13T20:20:56.572Z,101684.53
2023-05-13T20:23:22.993Z,101687.28
2023-05-13T20:25:49.481Z,101686.31
2023-05-13T20:28:16.969Z,101681.53
2023-05-13T20:30:43.599Z,101685.03
2023-05-13T20:33:10.105Z,101680.59
2023-05-13T20:35:39.559Z,101677.78
2023-05-13T20:38:06.246Z,101677.22
2023-05-13T20:40:32.702Z,101674.00
2023-05-13T20:43:01.355Z,101677.88
2023-05-13T20:45:28.542Z,101670.03
2023-05-13T20:47:59.193Z,101669.81
2023-05-13T20:50:27.537Z,101671.81
2023-05-13T20:52:54.938Z,101675.38
2023-05-13T20:55:22.374Z,101669.09
2023-05-13T20:57:50.294Z,101671.91
2023-05-13T21:00:17.491Z,101667.75
2023-05-13T21:02:44.212Z,101675.38
2023-05-13T21:05:11.072Z,101662.28
2023-05-13T21:07:37.870Z,101673.94
2023-05-13T21:10:05.121Z,101668.59
2023-05-13T21:12:31.668Z,101669.34
2023-05-13T21:14:58.099Z,101671.59
2023-05-13T21:17:24.891Z,101670.72
2023-05-13T21:19:51.443Z,101666.56
2023-05-13T21:22:19.833Z,101672.22
2023-05-13T21:24:47.050Z,101669.75
2023-05-13T21:27:13.546Z,101674.06
2023-05-13T21:29:40.002Z,101678.59
2023-05-13T21:32:06.546Z,101670.69
2023-05-13T21:34:32.994Z,101666.34
2023-05-13T21:36:59.489Z,101667.19
2023-05-13T21:39:25.988Z,101666.59
2023-05-13T21:41:52.401Z,101678.50
2023-05-13T21:44:18.825Z,101678.44
2023-05-13T21:46:45.327Z,101681.22
2023-05-13T21:49:11.970Z,101677.00
2023-05-13T21:51:38.474Z,101680.84
2023-05-13T21:54:04.963Z,101677.00
2023-05-13T21:56:31.429Z,101682.06
2023-05-13T21:58:57.876Z,101681.84
2023-05-13T22:01:24.508Z,101678.78
2023-05-13T22:03:51.087Z,101679.63
2023-05-13T22:06:17.490Z,101672.47
2023-05-13T22:08:44.209Z,101679.03
2023-05-13T22:11:12.493Z,101675.09
2023-05-13T22:13:38.969Z,101676.59
2023-05-13T22:16:05.577Z,101679.19
2023-05-13T22:18:32.274Z,101678.63
2023-05-13T22:21:00.686Z,101674.56
2023-05-13T22:23:27.397Z,101676.75
2023-05-13T22:25:53.880Z,101676.16
2023-05-13T22:28:20.329Z,101674.13
2023-05-13T22:30:49.419Z,101675.50
2023-05-13T22:33:15.951Z,101676.69
2023-05-13T22:35:42.470Z,101668.31
2023-05-13T22:38:09.113Z,101668.91
2023-05-13T22:40:36.262Z,101665.34
2023-05-13T22:43:03.118Z,101665.84
2023-05-13T22:45:30.562Z,101664.13
2023-05-13T22:47:57.175Z,101666.38
2023-05-13T22:50:24.809Z,101659.41
2023-05-13T22:52:51.926Z,101659.78
2023-05-13T22:55:18.368Z,101658.81
2023-05-13T22:57:44.832Z,101662.88
2023-05-13T23:00:12.334Z,101660.16
2023-05-13T23:02:38.844Z,101659.19
2023-05-13T23:05:06.102Z,101660.56
2023-05-13T23:07:32.649Z,101656.63
2023-05-13T23:10:00.299Z,101655.81
2023-05-13T23:12:26.842Z,101655.13
2023-05-13T23:14:53.285Z,101661.44
2023-05-13T23:17:19.939Z,101654.31
2023-05-13T23:19:46.476Z,101647.72
2023-05-13T23:22:12.939Z,101650.78
2023-05-13T23:24:39.433Z,101655.22
2023-05-13T23:27:06.370Z,101653.66
2023-05-13T23:29:32.864Z,101652.66
2023-05-13T23:31:59.430Z,101655.72
2023-05-13T23:34:25.920Z,101658.97
2023-05-13T23:36:52.434Z,101648.59
2023-05-13T23:39:18.990Z,101654.72
2023-05-13T23:41:45.718Z,101646.91
2023-05-13T23:44:12.218Z,101651.03
2023-05-13T23:46:38.706Z,101652.53
2023-05-13T23:49:05.151Z,101641.50
2023-05-13T23:51:32.054Z,101646.78
2023-05-13T23:53:58.744Z,101635.41
2023-05-13T23:56:25.553Z,101636.59
2023-05-13T23:58:52.217Z,101645.13
